Time;durP1;ratioP1;P1;durP2;ratioP2;P2;SDS_P1;SDS_P2;PMS_P1;PMS_P2;Temp;Humidity;BMP_temperature;BMP_pressure;BME280_temperature;BME280_humidity;BME280_pressure;Samples;Min_cycle;Max_cycle;Signal;HPM_P1;HPM_P2
2022/02/07 00:00:44;;;;;;;1.53;1.43;;;1.10;99.90;;;;;;6337113;28;20297;-73
2022/02/07 00:03:55;;;;;;;4.30;1.60;;;1.00;99.90;;;;;;6329140;28;20297;-73
2022/02/07 00:07:00;;;;;;;3.90;1.93;;;0.90;99.90;;;;;;6337139;28;20277;-72
2022/02/07 00:10:07;;;;;;;2.87;1.60;;;0.90;99.90;;;;;;6335138;28;20295;-73
2022/02/07 00:13:20;;;;;;;1.97;1.60;;;0.90;99.90;;;;;;6336045;28;20584;-73
2022/02/07 00:16:25;;;;;;;1.77;1.47;;;0.90;99.90;;;;;;6336615;28;20273;-72
2022/02/07 00:19:30;;;;;;;3.60;1.50;;;0.80;99.90;;;;;;6336869;28;20584;-73
2022/02/07 00:22:36;;;;;;;3.07;1.97;;;0.70;99.90;;;;;;6336521;28;20268;-73
2022/02/07 00:25:42;;;;;;;2.37;1.73;;;0.60;99.90;;;;;;6336098;28;20299;-73
2022/02/07 00:28:48;;;;;;;2.23;1.70;;;0.60;99.90;;;;;;6336621;28;20288;-73
2022/02/07 00:31:54;;;;;;;3.30;1.70;;;0.50;99.90;;;;;;6335824;28;20271;-72
2022/02/07 00:35:00;;;;;;;3.10;1.83;;;0.50;99.90;;;;;;6336410;28;20312;-72
2022/02/07 00:38:09;;;;;;;2.27;1.53;;;0.50;99.90;;;;;;6335464;28;20452;-73
2022/02/07 00:41:19;;;;;;;1.90;1.63;;;0.40;99.90;;;;;;6351876;28;20273;-73
2022/02/07 00:44:26;;;;;;;3.00;1.83;;;0.40;99.90;;;;;;6337497;28;20571;-73
2022/02/07 00:47:32;;;;;;;4.80;2.00;;;0.30;99.90;;;;;;6341159;28;20588;-73
2022/02/07 00:50:40;;;;;;;3.43;1.50;;;0.20;99.90;;;;;;6341287;28;20320;-72
2022/02/07 00:53:46;;;;;;;3.23;1.53;;;0.20;99.90;;;;;;6341349;28;20299;-73
2022/02/07 00:56:52;;;;;;;3.60;1.50;;;0.20;99.90;;;;;;6342024;28;20275;-73
2022/02/07 00:59:59;;;;;;;6.57;1.90;;;0.30;99.90;;;;;;6339885;28;20298;-73
2022/02/07 01:03:04;;;;;;;1.70;1.60;;;0.40;99.90;;;;;;6339123;28;20303;-74
2022/02/07 01:06:12;;;;;;;1.53;1.43;;;0.40;99.90;;;;;;6340115;28;20290;-73
2022/02/07 01:09:21;;;;;;;2.10;1.50;;;0.30;99.90;;;;;;6339426;28;20580;-72
2022/02/07 01:12:44;;;;;;;4.10;1.70;;;0.20;99.90;;;;;;6339597;28;20263;-73
2022/02/07 01:16:13;;;;;;;3.03;1.57;;;0.20;99.90;;;;;;6373460;27;20300;-73
2022/02/07 01:19:38;;;;;;;4.53;1.70;;;0.20;99.90;;;;;;6355650;28;20295;-73
2022/02/07 01:23:13;;;;;;;1.67;1.57;;;0.10;99.90;;;;;;6356615;28;20272;-73
2022/02/07 01:47:16;;;;;;;4.53;1.47;;;0.00;99.90;;;;;;6340921;28;20437;-73
2022/02/07 01:54:06;;;;;;;3.57;1.53;;;0.00;99.90;;;;;;6355235;28;20288;-73
2022/02/07 01:57:16;;;;;;;2.80;1.90;;;0.00;99.90;;;;;;6338891;28;20272;-73
2022/02/07 02:00:24;;;;;;;2.13;1.40;;;0.00;99.90;;;;;;6355237;28;20455;-73
2022/02/07 02:03:32;;;;;;;3.00;1.90;;;0.00;99.90;;;;;;6337754;28;20491;-73
2022/02/07 02:06:41;;;;;;;2.50;1.43;;;0.00;99.90;;;;;;6339420;28;20587;-73
2022/02/07 02:09:56;;;;;;;3.40;1.43;;;0.00;99.90;;;;;;6322174;28;20295;-73
2022/02/07 02:13:07;;;;;;;3.20;1.50;;;0.00;99.90;;;;;;6354942;28;20270;-73
2022/02/07 02:16:19;;;;;;;3.67;1.50;;;0.10;99.90;;;;;;6337168;28;20277;-73
2022/02/07 02:33:52;;;;;;;2.10;1.40;;;0.00;99.90;;;;;;6337257;28;20313;-74
2022/02/07 02:37:09;;;;;;;2.33;1.50;;;-0.10;99.90;;;;;;6355133;28;20279;-71
2022/02/07 02:47:06;;;;;;;1.60;1.30;;;-0.20;99.90;;;;;;6337714;28;20356;-72
2022/02/07 02:50:27;;;;;;;1.47;1.47;;;-0.30;99.90;;;;;;6354204;28;20294;-72
2022/02/07 02:53:35;;;;;;;1.43;1.43;;;-0.30;99.90;;;;;;6338842;28;20291;-72
2022/02/07 02:56:43;;;;;;;4.30;1.63;;;-0.30;99.90;;;;;;6337667;28;20274;-72
2022/02/07 02:59:51;;;;;;;2.00;1.33;;;-0.30;99.90;;;;;;6338485;28;20610;-72
2022/02/07 03:02:57;;;;;;;1.57;1.40;;;-0.30;99.90;;;;;;6336724;28;20307;-72
2022/02/07 03:06:03;;;;;;;1.63;1.30;;;-0.40;99.90;;;;;;6337509;28;20291;-72
2022/02/07 03:09:13;;;;;;;5.93;1.50;;;-0.40;99.90;;;;;;6337200;28;20294;-73
2022/02/07 03:12:22;;;;;;;3.83;1.43;;;-0.40;99.90;;;;;;6336781;28;20554;-72
2022/02/07 03:18:50;;;;;;;1.80;1.23;;;-0.40;99.90;;;;;;6337801;28;20297;-73
2022/02/07 03:21:55;;;;;;;1.47;1.23;;;-0.40;99.90;;;;;;6338496;28;20276;-72
2022/02/07 03:25:01;;;;;;;3.67;1.30;;;-0.40;99.90;;;;;;6338056;28;20479;-72
2022/02/07 03:28:22;;;;;;;3.03;1.00;;;-0.40;99.90;;;;;;6370042;27;20284;-72
2022/02/07 03:31:27;;;;;;;1.70;1.60;;;-0.40;99.90;;;;;;6353495;28;20277;-72
2022/02/07 03:34:35;;;;;;;1.90;1.40;;;-0.40;99.90;;;;;;6352539;28;20290;-72
2022/02/07 03:37:42;;;;;;;2.40;1.30;;;-0.40;99.90;;;;;;6335973;28;20274;-72
2022/02/07 03:40:51;;;;;;;1.40;1.30;;;-0.40;99.90;;;;;;6336413;28;20290;-72
2022/02/07 03:43:59;;;;;;;2.93;1.30;;;-0.40;99.90;;;;;;6319348;28;20290;-72
2022/02/07 03:47:05;;;;;;;1.90;1.47;;;-0.40;99.90;;;;;;6337082;28;20600;-72
2022/02/07 03:50:16;;;;;;;2.33;1.60;;;-0.40;99.90;;;;;;6336054;28;20299;-72
2022/02/07 03:53:27;;;;;;;2.77;1.60;;;-0.30;99.90;;;;;;6337573;28;20292;-73
2022/02/07 03:56:37;;;;;;;1.97;1.60;;;-0.40;99.90;;;;;;6352420;28;20458;-72
2022/02/07 03:59:44;;;;;;;1.43;1.40;;;-0.40;99.90;;;;;;6335878;28;20296;-72
2022/02/07 04:02:52;;;;;;;4.33;1.37;;;-0.40;99.90;;;;;;6330564;28;20332;-72
2022/02/07 04:06:17;;;;;;;8.60;1.73;;;-0.40;99.90;;;;;;6334920;28;20287;-72
2022/02/07 04:09:34;;;;;;;1.40;1.40;;;-0.40;99.90;;;;;;6335531;28;20299;-72
2022/02/07 04:12:47;;;;;;;1.43;1.30;;;-0.40;99.90;;;;;;6334961;28;20298;-72
2022/02/07 04:15:56;;;;;;;2.83;1.30;;;-0.40;99.90;;;;;;6335988;28;20283;-72
2022/02/07 04:19:05;;;;;;;1.43;1.30;;;-0.40;99.90;;;;;;6333722;28;20297;-72
2022/02/07 04:22:16;;;;;;;1.27;1.17;;;-0.50;99.90;;;;;;6334977;28;20330;-72
2022/02/07 04:25:45;;;;;;;1.57;1.47;;;-0.50;99.90;;;;;;6333175;28;20448;-72
2022/02/07 04:28:54;;;;;;;1.87;1.40;;;-0.50;99.90;;;;;;6352152;28;20298;-72
2022/02/07 04:32:01;;;;;;;1.93;1.23;;;-0.50;99.90;;;;;;6335925;28;20271;-72
2022/02/07 04:35:10;;;;;;;8.83;1.40;;;-0.50;99.90;;;;;;6336536;28;20277;-72
2022/02/07 04:38:17;;;;;;;2.13;1.47;;;-0.50;99.90;;;;;;6334659;28;20589;-72
2022/02/07 04:41:24;;;;;;;3.47;1.40;;;-0.50;99.90;;;;;;6335007;28;20271;-73
2022/02/07 04:44:38;;;;;;;1.80;1.30;;;-0.60;99.90;;;;;;6368554;28;20502;-73
2022/02/07 04:48:00;;;;;;;1.13;1.13;;;-0.60;99.90;;;;;;6334510;28;20304;-73
2022/02/07 04:54:52;;;;;;;3.53;1.40;;;-0.60;99.90;;;;;;6287304;28;20294;-73
2022/02/07 04:58:03;;;;;;;2.67;1.27;;;-0.60;99.90;;;;;;6351591;28;20294;-73
2022/02/07 05:01:13;;;;;;;4.00;1.60;;;-0.60;99.90;;;;;;6317968;28;20274;-73
2022/02/07 05:04:44;;;;;;;2.20;1.30;;;-0.60;99.90;;;;;;6322385;28;20290;-73
2022/02/07 05:14:41;;;;;;;1.83;1.63;;;-0.60;99.90;;;;;;6334353;28;20496;-73
2022/02/07 05:17:48;;;;;;;5.03;1.50;;;-0.60;99.90;;;;;;6334543;28;20290;-73
2022/02/07 05:21:17;;;;;;;9.37;1.43;;;-0.60;99.90;;;;;;6334504;28;20275;-73
2022/02/07 05:24:38;;;;;;;1.93;1.50;;;-0.60;99.90;;;;;;6334588;28;20315;-72
2022/02/07 05:28:08;;;;;;;3.90;1.37;;;-0.70;99.90;;;;;;6334056;28;20307;-73
2022/02/07 05:31:43;;;;;;;7.87;1.70;;;-0.70;99.90;;;;;;6318947;28;20462;-72
2022/02/07 05:35:18;;;;;;;4.90;1.20;;;-0.60;99.90;;;;;;6302612;28;20273;-72
2022/02/07 05:38:55;;;;;;;1.30;1.20;;;-0.70;99.90;;;;;;6331601;28;20440;-72
2022/02/07 05:42:10;;;;;;;4.50;1.50;;;-0.70;99.90;;;;;;6340258;28;20278;-73
2022/02/07 05:45:26;;;;;;;1.63;1.60;;;-0.70;99.90;;;;;;6339726;28;20360;-72
2022/02/07 05:48:42;;;;;;;6.03;1.60;;;-0.70;99.90;;;;;;6339695;28;20298;-73
2022/02/07 05:52:11;;;;;;;1.30;1.27;;;-0.70;99.90;;;;;;6339434;28;20275;-72
2022/02/07 05:55:34;;;;;;;6.23;1.33;;;-0.70;99.90;;;;;;6338644;28;20458;-72
2022/02/07 05:58:59;;;;;;;3.03;1.40;;;-0.70;99.90;;;;;;6339769;28;20301;-73
2022/02/07 06:02:33;;;;;;;1.13;1.13;;;-0.80;99.90;;;;;;6337157;28;20295;-73
2022/02/07 06:05:46;;;;;;;3.40;1.40;;;-0.80;99.90;;;;;;6322441;28;20273;-73
2022/02/07 06:08:58;;;;;;;1.67;1.50;;;-0.80;99.90;;;;;;6338265;28;20302;-72
2022/02/07 06:12:08;;;;;;;2.33;1.20;;;-0.80;99.90;;;;;;6337694;28;20313;-73
2022/02/07 06:15:14;;;;;;;2.63;1.27;;;-0.80;99.90;;;;;;6338615;28;20272;-72
2022/02/07 06:18:21;;;;;;;2.70;1.63;;;-0.80;99.90;;;;;;6354090;28;20302;-72
2022/02/07 06:21:27;;;;;;;1.50;1.30;;;-0.80;99.90;;;;;;6338259;28;20277;-73
2022/02/07 06:24:33;;;;;;;2.13;1.13;;;-0.80;99.90;;;;;;6321380;28;20289;-72
2022/02/07 06:27:40;;;;;;;2.73;1.30;;;-0.80;99.90;;;;;;6371303;27;20378;-72
2022/02/07 06:30:48;;;;;;;1.47;1.37;;;-0.80;99.90;;;;;;6338030;28;20521;-73
2022/02/07 06:33:54;;;;;;;1.67;1.30;;;-0.80;99.90;;;;;;6336416;28;20297;-72
2022/02/07 06:36:59;;;;;;;5.60;1.67;;;-0.90;99.90;;;;;;6337990;28;20486;-73
2022/02/07 06:40:09;;;;;;;3.30;1.50;;;-0.80;99.90;;;;;;6337231;28;20270;-72
2022/02/07 06:43:16;;;;;;;3.70;1.50;;;-0.80;99.90;;;;;;6335810;28;20293;-71
2022/02/07 06:46:22;;;;;;;1.60;1.50;;;-0.80;99.90;;;;;;6337313;28;20560;-73
2022/02/07 06:49:28;;;;;;;3.17;1.37;;;-0.90;99.90;;;;;;6353479;28;20309;-72
2022/02/07 06:52:34;;;;;;;2.27;1.63;;;-0.80;99.90;;;;;;6337657;28;20292;-75
2022/02/07 06:55:41;;;;;;;3.23;1.60;;;-0.90;99.90;;;;;;6337439;28;20273;-74
2022/02/07 06:58:49;;;;;;;5.13;1.90;;;-0.90;99.90;;;;;;6336047;28;20293;-71
2022/02/07 07:01:58;;;;;;;5.20;1.90;;;-0.90;99.90;;;;;;6353446;28;20294;-73
2022/02/07 07:05:09;;;;;;;1.60;1.50;;;-0.80;99.90;;;;;;6336642;28;20269;-74
2022/02/07 07:08:17;;;;;;;4.30;1.60;;;-0.80;99.90;;;;;;6353800;28;20405;-73
2022/02/07 07:11:26;;;;;;;3.03;1.67;;;-0.80;99.90;;;;;;6353586;28;20262;-74
2022/02/07 07:14:43;;;;;;;2.43;1.30;;;-0.80;99.90;;;;;;6336753;28;20303;-71
2022/02/07 07:17:49;;;;;;;4.50;1.67;;;-0.80;99.90;;;;;;6337058;28;20294;-73
2022/02/07 07:20:54;;;;;;;2.10;1.20;;;-0.90;99.90;;;;;;6337840;28;20282;-73
2022/02/07 07:24:00;;;;;;;5.70;1.50;;;-0.80;99.90;;;;;;6319179;28;20293;-73
2022/02/07 07:27:07;;;;;;;1.77;1.47;;;-0.80;99.90;;;;;;6352172;28;20271;-75
2022/02/07 07:30:17;;;;;;;3.20;1.83;;;-0.80;99.90;;;;;;6336895;28;20290;-74
2022/02/07 07:33:25;;;;;;;1.87;1.60;;;-0.80;99.90;;;;;;6352897;28;20294;-74
2022/02/07 07:36:33;;;;;;;1.57;1.47;;;-0.80;99.90;;;;;;6336466;28;20278;-74
2022/02/07 07:39:38;;;;;;;6.87;1.40;;;-0.70;99.90;;;;;;6336333;28;20298;-75
2022/02/07 07:42:52;;;;;;;1.43;1.40;;;-0.70;99.90;;;;;;6335669;28;20294;-74
2022/02/07 07:46:29;;;;;;;1.30;1.30;;;-0.70;99.90;;;;;;6335819;28;20276;-73
2022/02/07 07:49:44;;;;;;;2.10;1.30;;;-0.70;99.90;;;;;;6337051;28;20298;-74
2022/02/07 07:53:21;;;;;;;4.93;1.40;;;-0.60;99.90;;;;;;6319257;28;20289;-74
2022/02/07 08:03:51;;;;;;;3.83;1.60;;;-0.60;99.90;;;;;;6335224;28;20320;-74
2022/02/07 08:07:07;;;;;;;3.87;1.43;;;-0.50;99.90;;;;;;6368562;27;20270;-74
2022/02/07 08:10:44;;;;;;;1.30;1.30;;;-0.50;99.90;;;;;;6335844;28;20295;-73
2022/02/07 08:13:52;;;;;;;2.83;1.67;;;-0.50;99.90;;;;;;6351777;28;20307;-73
2022/02/07 08:17:05;;;;;;;1.53;1.43;;;-0.50;99.90;;;;;;6334917;28;20270;-73
2022/02/07 08:20:15;;;;;;;1.27;1.27;;;-0.50;99.90;;;;;;6336644;28;20277;-73
2022/02/07 08:23:20;;;;;;;4.80;1.30;;;-0.40;99.90;;;;;;6336853;28;20313;-73
2022/02/07 08:26:28;;;;;;;4.73;1.10;;;-0.50;99.90;;;;;;6337376;28;20421;-73
2022/02/07 08:29:33;;;;;;;8.90;1.43;;;-0.50;99.90;;;;;;6336129;28;20314;-73
2022/02/07 08:32:38;;;;;;;1.73;1.27;;;-0.40;99.90;;;;;;6335272;28;20290;-73
2022/02/07 08:35:45;;;;;;;1.90;1.23;;;-0.40;99.90;;;;;;6336615;28;20274;-73
2022/02/07 08:38:50;;;;;;;2.50;1.17;;;-0.40;99.90;;;;;;6336602;28;20421;-73
2022/02/07 08:41:55;;;;;;;1.20;1.20;;;-0.40;99.90;;;;;;6336585;28;20565;-74
2022/02/07 08:45:01;;;;;;;2.90;1.50;;;-0.40;99.90;;;;;;6336811;28;20272;-74
2022/02/07 08:48:07;;;;;;;2.30;1.33;;;-0.30;99.90;;;;;;6335949;28;20474;-73
2022/02/07 08:51:16;;;;;;;2.03;1.20;;;-0.30;99.90;;;;;;6335966;28;20590;-74
2022/02/07 08:54:24;;;;;;;1.40;1.30;;;-0.30;99.90;;;;;;6335550;28;20315;-73
2022/02/07 08:57:35;;;;;;;1.50;1.20;;;-0.20;99.90;;;;;;6335841;28;20289;-74
2022/02/07 09:00:53;;;;;;;1.10;1.10;;;-0.30;99.90;;;;;;6336003;28;20293;-74
2022/02/07 09:07:36;;;;;;;1.60;1.00;;;-0.30;99.90;;;;;;6305768;28;20589;-74
2022/02/07 09:10:42;;;;;;;1.30;1.27;;;-0.30;99.90;;;;;;6340869;28;20283;-73
2022/02/07 09:13:48;;;;;;;1.30;1.30;;;-0.20;99.90;;;;;;6340666;28;20299;-73
2022/02/07 09:16:53;;;;;;;1.10;1.10;;;-0.20;99.90;;;;;;6341284;28;20274;-74
2022/02/07 09:19:58;;;;;;;1.53;1.20;;;-0.10;99.90;;;;;;6340594;28;20298;-74
2022/02/07 09:23:06;;;;;;;1.40;1.30;;;-0.10;99.90;;;;;;6340546;28;20295;-74
2022/02/07 09:26:12;;;;;;;2.53;1.17;;;-0.10;99.90;;;;;;6340332;28;20275;-73
2022/02/07 09:29:18;;;;;;;3.20;1.10;;;-0.10;99.90;;;;;;6340710;28;20291;-73
2022/02/07 09:32:23;;;;;;;1.37;1.30;;;0.00;99.90;;;;;;6340579;28;20299;-73
2022/02/07 09:35:29;;;;;;;2.60;1.10;;;0.00;99.90;;;;;;6340607;28;20467;-73
2022/02/07 09:38:35;;;;;;;1.70;1.33;;;0.00;99.90;;;;;;6339615;28;20455;-73
2022/02/07 09:41:48;;;;;;;1.10;1.00;;;0.00;99.90;;;;;;6340210;28;20566;-73
2022/02/07 09:44:56;;;;;;;1.13;1.13;;;0.10;99.90;;;;;;6339170;28;20359;-74
2022/02/07 09:48:04;;;;;;;0.93;0.93;;;0.10;99.90;;;;;;6340220;28;20305;-74
2022/02/07 09:51:12;;;;;;;0.90;0.90;;;0.30;99.90;;;;;;6340638;28;20286;-74
2022/02/07 09:54:21;;;;;;;1.97;1.10;;;0.30;99.90;;;;;;6339983;28;20298;-73
2022/02/07 09:57:27;;;;;;;1.33;1.33;;;0.30;99.90;;;;;;6339954;28;20292;-74
2022/02/07 10:00:35;;;;;;;1.43;1.33;;;0.30;99.90;;;;;;6339828;28;20280;-73
2022/02/07 10:03:53;;;;;;;0.90;0.90;;;0.40;99.90;;;;;;6339210;28;20299;-73
2022/02/07 10:07:08;;;;;;;1.60;1.10;;;0.30;99.90;;;;;;6339329;28;20271;-74
2022/02/07 10:10:25;;;;;;;1.10;1.00;;;0.40;99.90;;;;;;6339015;28;20263;-73
2022/02/07 10:13:41;;;;;;;1.07;1.07;;;0.40;99.90;;;;;;6339471;28;20473;-72
2022/02/07 10:17:00;;;;;;;1.10;1.10;;;0.40;99.90;;;;;;6338079;28;20272;-73
2022/02/07 10:37:55;;;;;;;1.20;1.07;;;0.70;99.90;;;;;;6338484;28;20294;-73
2022/02/07 10:44:42;;;;;;;2.00;0.97;;;0.80;99.90;;;;;;6337869;28;20294;-73
2022/02/07 10:47:47;;;;;;;1.23;0.90;;;0.90;99.90;;;;;;6338490;27;20296;-73
2022/02/07 10:51:09;;;;;;;1.20;1.20;;;0.90;99.90;;;;;;6338572;28;20291;-74
2022/02/07 10:54:16;;;;;;;2.57;1.07;;;1.00;99.90;;;;;;6338745;28;20301;-73
2022/02/07 10:57:23;;;;;;;2.10;1.07;;;1.00;99.90;;;;;;6338540;28;20296;-73
2022/02/07 11:00:36;;;;;;;1.30;1.20;;;1.10;99.50;;;;;;6338987;28;20272;-74
2022/02/07 11:03:43;;;;;;;2.00;1.10;;;1.10;99.90;;;;;;6337822;28;20306;-73
2022/02/07 11:06:52;;;;;;;0.80;0.80;;;1.10;99.90;;;;;;6338398;28;20308;-73
2022/02/07 11:10:18;;;;;;;0.90;0.90;;;1.10;99.90;;;;;;6337853;28;20309;-73
2022/02/07 11:13:45;;;;;;;1.20;1.20;;;1.10;99.60;;;;;;6337931;28;20308;-73
2022/02/07 11:17:06;;;;;;;2.03;1.30;;;1.20;99.10;;;;;;6338113;28;20273;-73
2022/02/07 11:20:48;;;;;;;0.93;0.90;;;1.10;99.90;;;;;;6337550;28;20281;-73
2022/02/07 11:24:28;;;;;;;0.90;0.90;;;1.20;99.80;;;;;;6336992;28;20301;-73
2022/02/07 11:27:39;;;;;;;1.20;1.20;;;1.30;98.90;;;;;;6336761;28;20305;-74
2022/02/07 11:30:47;;;;;;;1.00;1.00;;;1.30;99.50;;;;;;6338295;28;20437;-74
2022/02/07 11:34:00;;;;;;;0.90;0.90;;;1.30;99.40;;;;;;6337328;28;20593;-74
2022/02/07 11:37:18;;;;;;;1.30;1.30;;;1.30;99.90;;;;;;6336821;28;20277;-74
2022/02/07 11:40:29;;;;;;;3.57;1.53;;;1.20;99.90;;;;;;6338167;28;20281;-73
2022/02/07 11:43:37;;;;;;;1.33;1.00;;;1.30;99.90;;;;;;6336601;28;20625;-73
2022/02/07 11:46:42;;;;;;;1.90;0.93;;;1.40;99.10;;;;;;6337140;28;20272;-74
2022/02/07 11:49:51;;;;;;;1.10;1.00;;;1.50;98.20;;;;;;6337239;28;20464;-74
2022/02/07 11:53:01;;;;;;;1.67;1.00;;;1.60;97.80;;;;;;6336550;28;20464;-74
2022/02/07 11:56:14;;;;;;;5.73;1.27;;;1.70;97.80;;;;;;6337546;28;20272;-74
2022/02/07 11:59:28;;;;;;;4.33;0.90;;;1.70;97.90;;;;;;6336311;28;20297;-74
2022/02/07 12:02:39;;;;;;;0.93;0.93;;;1.70;98.20;;;;;;6336619;28;20297;-74
2022/02/07 12:05:48;;;;;;;0.90;0.90;;;1.70;98.10;;;;;;6337784;28;20277;-74
2022/02/07 12:08:57;;;;;;;1.83;1.00;;;1.70;98.30;;;;;;6336399;28;20234;-74
2022/02/07 12:12:02;;;;;;;2.93;1.10;;;1.80;97.60;;;;;;6336416;28;20342;-74
2022/02/07 12:15:16;;;;;;;1.20;1.00;;;1.80;97.80;;;;;;6337125;28;20273;-74
2022/02/07 12:18:24;;;;;;;1.00;1.00;;;1.90;97.90;;;;;;6335762;28;20584;-73
2022/02/07 12:21:31;;;;;;;2.57;1.23;;;1.80;98.40;;;;;;6336604;28;20548;-74
2022/02/07 12:24:56;;;;;;;1.50;1.40;;;1.80;98.30;;;;;;6337574;28;20301;-74
2022/02/07 12:28:07;;;;;;;5.67;0.90;;;1.90;97.80;;;;;;6336084;28;20487;-74
2022/02/07 12:31:20;;;;;;;2.90;0.93;;;2.00;97.40;;;;;;6335722;28;20271;-74
2022/02/07 12:34:26;;;;;;;6.10;1.00;;;2.00;97.10;;;;;;6334887;28;20437;-74
2022/02/07 12:37:38;;;;;;;4.00;1.20;;;2.00;97.20;;;;;;6335888;28;20307;-74
2022/02/07 12:40:44;;;;;;;7.93;1.10;;;2.00;97.50;;;;;;6336297;28;20266;-74
2022/02/07 12:43:51;;;;;;;2.97;1.10;;;2.00;97.00;;;;;;6336502;28;20301;-73
2022/02/07 12:46:56;;;;;;;1.10;1.10;;;2.00;96.60;;;;;;6335835;28;20273;-73
2022/02/07 12:50:08;;;;;;;1.13;1.00;;;2.00;96.60;;;;;;6352303;28;20278;-73
2022/02/07 12:53:19;;;;;;;2.43;1.00;;;1.90;97.40;;;;;;6335321;28;20301;-73
2022/02/07 12:56:27;;;;;;;2.77;1.20;;;2.00;96.80;;;;;;6335653;28;20266;-74
2022/02/07 12:59:32;;;;;;;1.17;1.10;;;2.00;96.90;;;;;;6335488;28;20302;-74
2022/02/07 13:02:42;;;;;;;1.00;1.00;;;2.00;97.20;;;;;;6335567;28;20301;-73
2022/02/07 13:05:48;;;;;;;3.10;1.10;;;2.00;96.90;;;;;;6336667;28;20584;-74
2022/02/07 13:08:57;;;;;;;3.80;1.13;;;2.00;97.10;;;;;;6336139;28;20291;-74
2022/02/07 13:12:13;;;;;;;2.60;0.83;;;2.10;97.60;;;;;;6335029;28;20278;-74
2022/02/07 13:15:22;;;;;;;0.90;0.90;;;2.10;96.40;;;;;;6335593;28;20297;-73
2022/02/07 13:18:33;;;;;;;0.90;0.90;;;2.10;96.10;;;;;;6335921;28;20565;-74
2022/02/07 13:21:42;;;;;;;3.10;0.93;;;2.10;96.40;;;;;;6335522;28;20459;-73
2022/02/07 13:24:50;;;;;;;0.90;0.90;;;2.10;96.40;;;;;;6335132;28;20582;-75
2022/02/07 13:27:56;;;;;;;3.07;1.07;;;2.10;96.60;;;;;;6335640;28;20304;-73
2022/02/07 13:31:02;;;;;;;4.80;1.53;;;2.10;96.60;;;;;;6335528;28;20277;-73
2022/02/07 13:34:22;;;;;;;1.80;1.30;;;2.10;96.70;;;;;;6336317;28;20300;-74
2022/02/07 13:37:30;;;;;;;1.00;1.00;;;2.10;97.10;;;;;;6335588;28;20578;-73
2022/02/07 13:40:45;;;;;;;4.33;1.10;;;2.10;96.80;;;;;;6335553;28;20561;-74
2022/02/07 13:43:51;;;;;;;3.30;1.00;;;2.20;97.10;;;;;;6335101;28;20305;-73
2022/02/07 13:47:02;;;;;;;1.73;1.03;;;2.20;97.50;;;;;;6335305;28;20290;-74
2022/02/07 13:50:10;;;;;;;1.50;1.00;;;2.20;96.90;;;;;;6336160;28;20270;-73
2022/02/07 13:53:21;;;;;;;4.13;1.00;;;2.30;96.80;;;;;;6338577;28;20327;-73
2022/02/07 13:56:33;;;;;;;1.00;0.90;;;2.40;97.10;;;;;;6339802;28;20273;-73
2022/02/07 13:59:38;;;;;;;2.30;0.87;;;2.30;97.00;;;;;;6339689;28;20293;-73
2022/02/07 14:02:44;;;;;;;1.17;0.90;;;2.30;96.80;;;;;;6339312;28;20294;-73
2022/02/07 14:05:53;;;;;;;1.30;1.00;;;2.30;97.10;;;;;;6340255;28;20275;-73
2022/02/07 14:08:58;;;;;;;2.17;0.93;;;2.30;97.10;;;;;;6339319;28;20290;-73
2022/02/07 14:12:07;;;;;;;1.33;1.27;;;2.30;97.00;;;;;;6338573;28;20261;-73
2022/02/07 14:15:12;;;;;;;1.60;1.00;;;2.20;97.40;;;;;;6338665;28;20454;-73
2022/02/07 14:18:20;;;;;;;1.40;1.10;;;2.10;97.90;;;;;;6338477;28;20321;-73
2022/02/07 14:21:31;;;;;;;0.87;0.87;;;2.10;98.10;;;;;;6339152;28;20273;-73
2022/02/07 14:24:37;;;;;;;1.27;0.97;;;2.10;98.10;;;;;;6339791;28;20299;-73
2022/02/07 14:27:55;;;;;;;7.73;0.90;;;2.00;98.30;;;;;;6338630;28;20293;-73
2022/02/07 14:31:02;;;;;;;4.20;0.93;;;2.00;97.70;;;;;;6338943;28;20564;-73
2022/02/07 14:34:07;;;;;;;0.70;0.70;;;1.90;97.80;;;;;;6339354;27;20297;-73
2022/02/07 14:37:13;;;;;;;1.03;1.00;;;1.80;97.60;;;;;;6338374;28;20277;-74
2022/02/07 14:40:19;;;;;;;2.20;0.90;;;1.80;97.40;;;;;;6339014;28;20276;-75
2022/02/07 14:43:29;;;;;;;0.80;0.80;;;1.80;97.00;;;;;;6338242;28;20597;-74
2022/02/07 14:46:36;;;;;;;1.53;1.17;;;1.70;97.30;;;;;;6339158;28;20277;-73
2022/02/07 14:49:45;;;;;;;1.10;1.10;;;1.70;97.80;;;;;;6339061;28;20301;-72
2022/02/07 14:52:50;;;;;;;1.80;0.90;;;1.60;97.90;;;;;;6338830;28;20307;-72
2022/02/07 14:55:56;;;;;;;1.10;0.80;;;1.60;98.10;;;;;;6354288;28;20289;-74
2022/02/07 14:59:02;;;;;;;4.73;1.17;;;1.60;98.20;;;;;;6338711;28;20325;-72
2022/02/07 15:02:08;;;;;;;4.33;0.90;;;1.50;98.50;;;;;;6337523;28;20273;-72
2022/02/07 15:05:13;;;;;;;0.83;0.83;;;1.50;98.40;;;;;;6338288;28;20277;-72
2022/02/07 15:08:18;;;;;;;1.43;1.00;;;1.50;98.60;;;;;;6338718;28;20294;-72
2022/02/07 15:11:24;;;;;;;4.70;1.10;;;1.40;99.00;;;;;;6338003;28;20277;-72
2022/02/07 15:14:31;;;;;;;2.67;0.97;;;1.50;98.70;;;;;;6337974;28;20453;-72
2022/02/07 15:17:36;;;;;;;0.90;0.90;;;1.50;98.50;;;;;;6337314;28;20296;-72
2022/02/07 15:20:42;;;;;;;1.00;1.00;;;1.60;98.50;;;;;;6337374;28;20276;-72
2022/02/07 15:23:47;;;;;;;2.00;1.30;;;1.60;98.40;;;;;;6337079;28;20297;-72
2022/02/07 15:26:52;;;;;;;1.20;1.10;;;1.50;98.60;;;;;;6338088;28;20281;-73
2022/02/07 15:29:59;;;;;;;2.87;1.10;;;1.40;99.00;;;;;;6336995;28;20433;-72
2022/02/07 15:33:07;;;;;;;3.80;1.30;;;1.40;98.80;;;;;;6337243;28;20290;-72
2022/02/07 15:36:12;;;;;;;1.50;1.10;;;1.40;99.00;;;;;;6337712;28;20285;-72
2022/02/07 15:39:19;;;;;;;1.30;1.20;;;1.40;99.00;;;;;;6337796;28;20387;-72
2022/02/07 15:42:24;;;;;;;2.00;1.30;;;1.30;99.20;;;;;;6337719;28;20289;-73
2022/02/07 15:45:33;;;;;;;1.27;1.00;;;1.30;99.20;;;;;;6337933;28;20275;-73
2022/02/07 15:48:38;;;;;;;1.33;1.00;;;1.30;99.20;;;;;;6337292;28;20301;-72
2022/02/07 15:51:43;;;;;;;5.70;1.13;;;1.30;99.40;;;;;;6337739;28;20376;-72
2022/02/07 15:54:52;;;;;;;1.37;1.23;;;1.30;99.40;;;;;;6336346;28;20472;-72
2022/02/07 15:57:58;;;;;;;1.63;1.53;;;1.30;99.90;;;;;;6336803;28;20292;-73
2022/02/07 16:01:04;;;;;;;1.93;1.23;;;1.20;99.80;;;;;;6337762;28;20272;-72
2022/02/07 16:04:11;;;;;;;1.83;1.53;;;1.10;99.90;;;;;;6336947;28;20296;-73
2022/02/07 16:07:16;;;;;;;3.30;1.10;;;1.20;99.90;;;;;;6336672;28;20292;-72
2022/02/07 16:10:21;;;;;;;1.50;1.03;;;1.20;99.90;;;;;;6337106;28;20268;-72
2022/02/07 16:13:32;;;;;;;1.60;0.93;;;1.20;99.70;;;;;;6336672;28;20304;-72
2022/02/07 16:16:39;;;;;;;2.30;1.20;;;1.20;99.90;;;;;;6334797;28;20301;-73
2022/02/07 16:19:45;;;;;;;4.03;1.10;;;1.20;99.80;;;;;;6335206;28;20316;-72
2022/02/07 16:22:52;;;;;;;2.27;0.80;;;1.10;99.90;;;;;;6335920;28;20277;-73
2022/02/07 16:25:57;;;;;;;0.90;0.90;;;1.10;99.90;;;;;;6336582;28;20278;-72
2022/02/07 16:29:03;;;;;;;3.40;1.00;;;1.10;99.90;;;;;;6336320;28;20575;-72
2022/02/07 16:32:13;;;;;;;2.53;1.00;;;1.00;99.90;;;;;;6336821;28;20273;-71
2022/02/07 16:35:18;;;;;;;1.13;0.90;;;1.00;99.80;;;;;;6335858;28;20300;-73
2022/02/07 16:38:25;;;;;;;2.83;1.00;;;1.00;99.90;;;;;;6336122;28;20424;-74
2022/02/07 16:41:34;;;;;;;1.70;0.90;;;1.00;99.70;;;;;;6336679;28;20267;-74
2022/02/07 16:44:48;;;;;;;3.40;0.90;;;1.00;99.70;;;;;;6336688;28;20569;-74
2022/02/07 16:47:55;;;;;;;0.80;0.80;;;0.90;99.80;;;;;;6335722;28;20580;-74
2022/02/07 16:51:00;;;;;;;1.23;1.07;;;0.90;99.90;;;;;;6337282;28;20272;-73
2022/02/07 16:54:08;;;;;;;4.30;1.20;;;0.90;99.90;;;;;;6336468;28;20575;-74
2022/02/07 16:57:13;;;;;;;1.13;1.13;;;0.80;99.90;;;;;;6336789;28;20291;-73
2022/02/07 17:00:19;;;;;;;0.97;0.97;;;0.90;99.90;;;;;;6336355;28;20297;-73
2022/02/07 17:03:27;;;;;;;3.80;1.10;;;0.80;99.90;;;;;;6336009;28;20292;-73
2022/02/07 17:06:32;;;;;;;1.30;1.00;;;0.80;99.90;;;;;;6336135;28;20592;-72
2022/02/07 17:09:40;;;;;;;1.00;1.00;;;0.80;99.90;;;;;;6333040;28;20296;-74
2022/02/07 17:12:45;;;;;;;0.90;0.90;;;0.70;99.90;;;;;;6310124;28;20274;-74
2022/02/07 17:15:51;;;;;;;1.20;1.20;;;0.70;99.90;;;;;;6310293;28;20276;-73
2022/02/07 17:18:57;;;;;;;1.10;1.10;;;0.70;99.90;;;;;;6310677;28;20296;-73
2022/02/07 17:22:03;;;;;;;1.60;1.03;;;0.70;99.80;;;;;;6310539;28;20270;-73
2022/02/07 17:25:11;;;;;;;1.20;1.20;;;0.70;99.80;;;;;;6311470;28;20382;-73
2022/02/07 17:28:16;;;;;;;1.20;1.00;;;0.60;99.90;;;;;;6314922;28;20298;-73
2022/02/07 17:31:22;;;;;;;1.03;1.03;;;0.70;99.80;;;;;;6315079;28;20564;-72
2022/02/07 17:34:28;;;;;;;1.10;1.10;;;0.70;99.80;;;;;;6315461;28;20295;-73
2022/02/07 17:37:34;;;;;;;1.00;1.00;;;0.70;99.70;;;;;;6314946;28;20288;-73
2022/02/07 17:40:40;;;;;;;2.13;0.93;;;0.70;99.90;;;;;;6314726;28;20292;-72
2022/02/07 17:43:52;;;;;;;1.13;1.03;;;0.60;99.90;;;;;;6314338;28;20299;-72
2022/02/07 17:47:00;;;;;;;1.10;1.00;;;0.60;99.90;;;;;;6315496;28;20277;-72
2022/02/07 17:50:09;;;;;;;1.00;1.00;;;0.70;99.80;;;;;;6314383;28;20295;-72
2022/02/07 17:53:17;;;;;;;0.90;0.90;;;0.70;99.80;;;;;;6314574;28;20571;-73
2022/02/07 17:56:22;;;;;;;1.00;0.90;;;0.70;99.90;;;;;;6314761;28;20563;-72
2022/02/07 17:59:28;;;;;;;0.90;0.90;;;0.60;99.90;;;;;;6314348;28;20294;-73
2022/02/07 18:02:34;;;;;;;0.93;0.93;;;0.60;99.90;;;;;;6321348;28;20298;-73
2022/02/07 18:05:44;;;;;;;1.37;1.00;;;0.60;99.90;;;;;;6339787;28;20272;-71
2022/02/07 18:08:50;;;;;;;1.67;0.77;;;0.50;99.90;;;;;;6321308;28;20299;-72